Time;durP1;ratioP1;P1;durP2;ratioP2;P2;SDS_P1;SDS_P2;PMS_P1;PMS_P2;Temp;Humidity;BMP_temperature;BMP_pressure;BME280_temperature;BME280_humidity;BME280_pressure;Samples;Min_cycle;Max_cycle;Signal;HPM_P1;HPM_P2
2023/10/16 00:01:03;;;;;;;;;1.00;1.00;;;;;22.41;47.55;100565.95;109899;1253;19406;-36
2023/10/16 00:03:38;;;;;;;;;1.00;1.00;;;;;22.43;47.35;100567.62;109844;1260;19120;-37
2023/10/16 00:06:05;;;;;;;;;1.00;1.00;;;;;22.43;47.26;100568.23;109934;1252;22129;-39
2023/10/16 00:08:32;;;;;;;;;1.00;1.00;;;;;22.41;47.35;100563.59;109985;1254;19742;-38
2023/10/16 00:10:58;;;;;;;;;1.00;1.00;;;;;22.43;47.20;100563.04;109954;1268;19097;-36
2023/10/16 00:13:27;;;;;;;;;1.00;1.00;;;;;22.43;47.25;100565.50;109966;1268;22265;-37
2023/10/16 00:15:54;;;;;;;;;1.00;1.00;;;;;22.41;47.28;100565.52;109987;1268;19430;-37
2023/10/16 00:18:23;;;;;;;;;1.00;1.00;;;;;22.42;47.12;100565.22;109977;1268;21551;-37
2023/10/16 00:20:49;;;;;;;;;1.00;1.00;;;;;22.43;47.15;100567.08;110009;1253;21286;-37
2023/10/16 00:23:15;;;;;;;;;1.00;1.00;;;;;22.41;47.19;100566.05;109828;1254;190365;-36
2023/10/16 00:25:41;;;;;;;;;1.00;1.00;;;;;22.41;46.93;100568.02;109959;1268;18805;-36
2023/10/16 00:28:07;;;;;;;;;1.00;1.00;;;;;22.40;47.21;100572.55;109957;1254;19736;-36
2023/10/16 00:30:33;;;;;;;;;1.00;1.00;;;;;22.40;47.15;100574.02;109951;1254;22875;-37
2023/10/16 00:32:59;;;;;;;;;1.00;1.00;;;;;22.40;46.94;100574.41;109934;1254;22542;-37
2023/10/16 00:35:25;;;;;;;;;1.00;1.00;;;;;22.40;46.97;100578.55;109876;1268;19651;-37
2023/10/16 00:37:51;;;;;;;;;2.00;2.00;;;;;22.41;47.01;100580.02;109850;1253;22195;-38
2023/10/16 00:40:31;;;;;;;;;1.00;1.00;;;;;22.41;47.05;100581.02;109933;1268;18970;-38
2023/10/16 00:42:57;;;;;;;;;1.00;1.00;;;;;22.41;46.99;100581.50;109827;1254;21650;-38
2023/10/16 00:45:23;;;;;;;;;1.00;1.00;;;;;22.42;46.96;100582.96;109841;1253;18153;-38
2023/10/16 00:47:49;;;;;;;;;1.00;1.00;;;;;22.40;46.80;100584.17;109990;1268;17665;-38
2023/10/16 00:50:15;;;;;;;;;1.00;1.00;;;;;22.40;46.94;100588.11;109955;1254;19753;-37
2023/10/16 00:52:42;;;;;;;;;1.00;1.00;;;;;22.40;46.54;100585.98;109973;1268;17999;-36
2023/10/16 00:55:11;;;;;;;;;1.00;1.00;;;;;22.40;46.73;100590.73;109992;1260;21893;-37
2023/10/16 00:57:37;;;;;;;;;1.00;1.00;;;;;22.38;46.88;100593.05;109985;1268;19806;-37
2023/10/16 01:00:12;;;;;;;;;1.00;1.00;;;;;22.39;46.72;100595.33;109958;1252;19534;-37
2023/10/16 01:02:40;;;;;;;;;1.00;1.00;;;;;22.40;46.90;100600.29;109894;1252;23003;-38
2023/10/16 01:05:07;;;;;;;;;1.00;1.00;;;;;22.41;46.62;100602.41;109874;1254;21628;-38
2023/10/16 01:07:33;;;;;;;;;1.00;1.00;;;;;22.38;46.85;100604.88;109897;1252;20948;-37
2023/10/16 01:10:02;;;;;;;;;1.00;1.00;;;;;22.39;46.52;100603.67;109843;1254;21819;-38
2023/10/16 01:12:27;;;;;;;;;1.00;1.00;;;;;22.40;46.61;100606.89;109855;1254;18329;-38
2023/10/16 01:14:54;;;;;;;;;1.00;1.00;;;;;22.39;46.50;100610.28;109872;1254;19369;-37
2023/10/16 01:17:29;;;;;;;;;1.00;1.00;;;;;22.38;46.72;100609.63;109976;1253;23299;-37
2023/10/16 01:19:56;;;;;;;;;1.00;1.00;;;;;22.40;46.68;100609.45;110007;1254;21697;-38
2023/10/16 01:22:22;;;;;;;;;1.00;1.00;;;;;22.38;46.51;100615.54;109966;1254;20805;-37
2023/10/16 01:24:48;;;;;;;;;1.00;1.00;;;;;22.36;46.51;100616.58;109985;1264;19219;-37
2023/10/16 01:27:26;;;;;;;;;1.00;1.00;;;;;22.37;46.73;100619.30;109935;1254;19719;-39
2023/10/16 01:29:52;;;;;;;;;1.00;1.00;;;;;22.41;46.71;100624.85;109969;1253;18179;-39
2023/10/16 01:32:18;;;;;;;;;1.00;1.00;;;;;22.40;46.42;100622.45;109987;1268;18149;-39
2023/10/16 01:34:46;;;;;;;;;1.00;1.00;;;;;22.35;46.65;100631.86;109934;1268;21986;-37
2023/10/16 01:37:17;;;;;;;;;1.00;1.00;;;;;22.37;46.52;100636.33;109982;1268;18164;-37
2023/10/16 01:39:53;;;;;;;;;1.00;1.00;;;;;22.39;46.34;100642.92;109953;1268;19191;-38
2023/10/16 01:42:19;;;;;;;;;1.00;1.00;;;;;22.39;46.48;100640.69;109988;1268;21838;-37
2023/10/16 01:44:45;;;;;;;;;1.00;1.00;;;;;22.39;46.31;100641.39;109997;1268;18817;-37
2023/10/16 01:47:15;;;;;;;;;1.00;1.00;;;;;22.37;46.45;100639.06;109973;1268;19011;-39
2023/10/16 01:49:41;;;;;;;;;1.00;1.00;;;;;22.37;46.62;100636.01;109955;1252;22756;-36
2023/10/16 01:52:10;;;;;;;;;1.00;1.00;;;;;22.37;46.27;100639.50;109989;1268;18192;-39
2023/10/16 01:54:37;;;;;;;;;1.00;1.00;;;;;22.37;46.25;100639.98;109963;1255;19321;-37
2023/10/16 01:57:09;;;;;;;;;1.00;1.00;;;;;22.39;46.44;100638.93;109967;1269;21968;-37
2023/10/16 01:59:35;;;;;;;;;1.00;1.00;;;;;22.37;46.60;100641.02;109973;1268;18270;-37
2023/10/16 02:02:01;;;;;;;;;1.00;1.00;;;;;22.36;46.25;100643.31;109974;1268;17648;-37
2023/10/16 02:04:27;;;;;;;;;1.00;1.00;;;;;22.36;46.48;100639.61;109936;1254;19850;-37
2023/10/16 02:06:53;;;;;;;;;1.50;1.00;;;;;22.39;46.42;100639.75;109962;1252;19610;-37
2023/10/16 02:09:23;;;;;;;;;1.00;1.00;;;;;22.36;46.49;100642.67;109946;1252;20404;-37
2023/10/16 02:11:49;;;;;;;;;1.00;1.00;;;;;22.36;46.29;100650.25;109988;1253;21833;-37
2023/10/16 02:14:15;;;;;;;;;1.00;1.00;;;;;22.37;46.25;100646.48;109933;1252;21269;-37
2023/10/16 02:16:41;;;;;;;;;2.00;1.00;;;;;22.35;46.38;100651.89;109933;1253;21705;-37
2023/10/16 02:19:08;;;;;;;;;1.00;1.00;;;;;22.37;46.16;100657.40;109915;1254;20247;-37
2023/10/16 02:21:35;;;;;;;;;1.00;1.00;;;;;22.37;46.10;100658.71;109822;1268;21855;-37
2023/10/16 02:24:03;;;;;;;;;1.00;1.00;;;;;22.37;46.37;100660.67;109990;1268;18426;-37
2023/10/16 02:26:30;;;;;;;;;1.00;1.00;;;;;22.38;46.23;100665.04;109967;1254;20018;-37
2023/10/16 02:28:58;;;;;;;;;1.00;1.00;;;;;22.37;46.31;100668.70;109922;1254;21831;-37
2023/10/16 02:31:25;;;;;;;;;1.00;1.00;;;;;22.38;46.32;100668.96;109897;1253;21332;-37
2023/10/16 02:33:54;;;;;;;;;1.00;1.00;;;;;22.35;46.38;100671.92;109995;1268;18573;-37
2023/10/16 02:36:20;;;;;;;;;1.00;1.00;;;;;22.35;46.20;100674.81;109952;1260;19655;-36
2023/10/16 02:38:47;;;;;;;;;1.00;1.00;;;;;22.35;46.19;100676.90;109980;1252;21572;-38
2023/10/16 02:41:14;;;;;;;;;1.00;1.00;;;;;22.35;46.19;100680.94;109988;1260;22729;-37
2023/10/16 02:43:41;;;;;;;;;1.00;1.00;;;;;22.33;46.31;100685.15;110008;1268;18194;-38
2023/10/16 02:46:09;;;;;;;;;1.00;1.00;;;;;22.35;46.21;100686.98;109951;1268;22029;-37
2023/10/16 02:48:35;;;;;;;;;1.00;1.00;;;;;22.33;46.24;100683.41;109943;1252;21099;-37
2023/10/16 02:51:02;;;;;;;;;1.00;1.00;;;;;22.33;46.12;100682.91;109995;1268;18272;-37
2023/10/16 02:53:28;;;;;;;;;1.00;1.00;;;;;22.34;46.38;100678.88;109995;1253;19333;-37
2023/10/16 02:55:57;;;;;;;;;1.00;1.00;;;;;22.33;46.23;100678.98;109940;1254;19833;-39
2023/10/16 02:58:24;;;;;;;;;1.00;1.00;;;;;22.32;46.27;100678.72;109960;1254;19654;-38
2023/10/16 03:00:50;;;;;;;;;1.00;1.00;;;;;22.31;46.27;100677.36;109943;1268;19492;-37
2023/10/16 03:03:19;;;;;;;;;2.00;1.50;;;;;22.33;46.20;100678.05;109971;1254;21138;-38
2023/10/16 03:05:45;;;;;;;;;2.00;2.00;;;;;22.34;46.17;100676.80;109948;1264;19410;-37
2023/10/16 03:08:12;;;;;;;;;2.00;1.00;;;;;22.33;46.14;100676.91;109945;1253;19093;-37
2023/10/16 03:10:40;;;;;;;;;1.00;1.00;;;;;22.32;46.19;100671.89;109962;1254;21150;-37
2023/10/16 03:13:06;;;;;;;;;1.00;1.00;;;;;22.35;46.08;100669.64;109969;1268;18311;-38
2023/10/16 03:15:38;;;;;;;;;1.00;1.00;;;;;22.34;46.21;100667.41;109949;1253;22161;-39
2023/10/16 03:18:05;;;;;;;;;1.00;1.00;;;;;22.34;46.06;100666.76;109995;1268;18518;-37
2023/10/16 03:20:35;;;;;;;;;1.00;1.00;;;;;22.35;46.11;100670.13;109951;1268;21938;-37
2023/10/16 03:23:06;;;;;;;;;1.00;1.00;;;;;22.34;46.05;100674.88;109988;1268;17839;-38
2023/10/16 03:25:50;;;;;;;;;2.67;1.00;;;;;22.32;46.12;100682.54;109959;1254;19980;-37
2023/10/16 03:28:17;;;;;;;;;2.00;1.00;;;;;22.30;46.09;100687.73;109967;1252;19666;-37
2023/10/16 03:30:43;;;;;;;;;2.00;2.00;;;;;22.30;46.24;100692.64;109996;1254;19560;-39
2023/10/16 03:33:14;;;;;;;;;1.00;1.00;;;;;22.30;46.06;100695.59;109952;1254;19883;-39
2023/10/16 03:35:41;;;;;;;;;1.00;1.00;;;;;22.30;46.35;100696.14;109962;1254;22479;-39
2023/10/16 03:38:10;;;;;;;;;1.00;1.00;;;;;22.28;45.95;100693.58;109985;1260;19158;-37
2023/10/16 03:40:36;;;;;;;;;1.00;1.00;;;;;22.33;45.99;100696.17;110010;1254;20198;-37
2023/10/16 03:43:02;;;;;;;;;1.00;1.00;;;;;22.32;45.93;100700.98;109973;1253;19451;-37
2023/10/16 03:45:28;;;;;;;;;1.00;1.00;;;;;22.33;45.97;100703.98;109958;1270;18969;-37
2023/10/16 03:47:57;;;;;;;;;2.00;1.00;;;;;22.34;45.90;100711.95;109978;1253;19676;-37
2023/10/16 03:50:25;;;;;;;;;1.50;1.00;;;;;22.35;45.71;100713.79;109980;1253;19826;-37
2023/10/16 03:52:54;;;;;;;;;1.00;1.00;;;;;22.32;45.99;100719.54;110001;1254;19235;-39
2023/10/16 03:55:23;;;;;;;;;1.00;1.00;;;;;22.32;45.88;100725.49;109857;1254;21677;-38
2023/10/16 03:57:50;;;;;;;;;2.00;1.00;;;;;22.30;46.03;100729.75;109878;1253;20990;-39
2023/10/16 04:00:18;;;;;;;;;1.50;1.50;;;;;22.32;46.00;100734.45;109867;1253;18015;-38
2023/10/16 04:02:44;;;;;;;;;2.00;2.00;;;;;22.30;46.05;100736.90;109877;1268;18573;-38
2023/10/16 04:05:29;;;;;;;;;1.00;1.00;;;;;22.31;46.06;100739.85;109975;1254;19978;-38
2023/10/16 04:07:55;;;;;;;;;1.50;1.50;;;;;22.32;45.90;100738.98;109991;1267;17842;-37
2023/10/16 04:10:27;;;;;;;;;2.00;2.00;;;;;22.30;45.91;100735.27;109929;1254;22018;-38
2023/10/16 04:12:54;;;;;;;;;2.00;2.00;;;;;22.30;46.13;100731.84;109917;1261;19514;-39
2023/10/16 04:15:34;;;;;;;;;1.00;1.00;;;;;22.28;46.23;100733.98;109838;1254;19073;-38
2023/10/16 04:18:04;;;;;;;;;1.50;1.00;;;;;22.28;45.96;100731.63;109946;1268;21445;-36
2023/10/16 04:20:43;;;;;;;;;2.00;2.00;;;;;22.29;45.83;100738.87;109995;1253;19703;-36
2023/10/16 04:23:29;;;;;;;;;1.00;1.00;;;;;22.30;45.97;100739.59;109881;1268;22071;-39
2023/10/16 04:26:28;;;;;;;;;2.00;2.00;;;;;22.30;45.88;100737.17;109951;1254;20119;-39
2023/10/16 04:31:44;;;;;;;;;1.00;1.00;;;;;22.27;46.20;100735.18;109909;1268;19319;-38
2023/10/16 04:34:24;;;;;;;;;1.00;1.00;;;;;22.28;46.21;100737.56;110001;1253;20415;-39
2023/10/16 04:36:52;;;;;;;;;;;;;;;22.28;46.16;100734.57;109945;1253;19738;-38
2023/10/16 04:40:45;;;;;;;;;1.00;1.00;;;;;22.27;45.97;100731.23;109875;1268;19998;-38
2023/10/16 04:45:24;;;;;;;;;;;;;;;22.27;45.85;100724.92;109984;1268;20733;-37
2023/10/16 04:47:56;;;;;;;;;1.00;1.00;;;;;22.25;46.31;100717.94;109961;1268;21975;-38
2023/10/16 04:50:29;;;;;;;;;1.50;1.50;;;;;22.25;45.94;100716.46;110045;1252;20192;-38
2023/10/16 04:53:07;;;;;;;;;1.00;1.00;;;;;22.24;46.02;100718.92;109970;1253;21539;-37
2023/10/16 04:55:53;;;;;;;;;1.00;1.00;;;;;22.25;46.02;100720.66;110019;1260;19123;-36
2023/10/16 04:58:38;;;;;;;;;2.00;2.00;;;;;22.26;46.00;100726.66;109985;1253;22483;-39
2023/10/16 05:01:32;;;;;;;;;2.00;2.00;;;;;22.25;46.13;100729.19;109942;1268;18316;-39
2023/10/16 05:06:49;;;;;;;;;1.50;1.50;;;;;22.25;45.78;100733.11;109969;1268;19363;-37
2023/10/16 06:14:54;;;;;;;;;2.00;2.00;;;;;22.51;47.81;100791.70;108236;1267;19739;-37
2023/10/16 06:17:23;;;;;;;;;2.00;1.00;;;;;22.54;47.79;100789.45;108187;1267;21236;-39
2023/10/16 06:19:51;;;;;;;;;2.00;1.00;;;;;22.59;47.81;100793.09;108171;1267;22037;-38
2023/10/16 06:22:17;;;;;;;;;2.00;2.00;;;;;22.64;47.83;100792.52;108229;1267;19891;-38
2023/10/16 06:24:44;;;;;;;;;;;;;;;22.60;47.60;100790.95;108197;1267;20244;-38
2023/10/16 06:27:10;;;;;;;;;2.00;2.00;;;;;22.64;47.55;100790.05;108217;1267;21037;-38
2023/10/16 06:29:40;;;;;;;;;1.00;1.00;;;;;22.66;47.72;100792.94;108309;1267;19143;-38
2023/10/16 06:32:07;;;;;;;;;1.00;1.00;;;;;22.70;47.43;100795.10;108599;1262;22354;-38
2023/10/16 06:34:33;;;;;;;;;1.00;1.00;;;;;22.75;47.05;100797.86;108560;1262;23893;-38
2023/10/16 06:37:05;;;;;;;;;2.00;2.00;;;;;22.77;46.94;100797.69;108617;1270;20034;-38
2023/10/16 06:39:35;;;;;;;;;1.00;1.00;;;;;22.80;47.10;100798.63;108596;1262;20440;-38
2023/10/16 06:42:02;;;;;;;;;1.00;1.00;;;;;22.80;46.74;100801.18;108564;1270;23865;-37
2023/10/16 06:44:28;;;;;;;;;2.00;2.00;;;;;22.82;46.58;100804.95;108590;1262;19698;-37
2023/10/16 06:46:58;;;;;;;;;5.00;2.00;;;;;22.83;46.28;100807.62;108792;1270;19863;-37
2023/10/16 06:49:26;;;;;;;;;1.50;1.50;;;;;22.84;46.20;100808.88;108939;1256;19318;-38
2023/10/16 06:51:52;;;;;;;;;1.00;1.00;;;;;22.81;46.12;100813.30;109096;1268;22129;-37
2023/10/16 06:54:18;;;;;;;;;1.00;1.00;;;;;22.75;46.43;100813.42;109903;1253;20955;-38
2023/10/16 06:56:44;;;;;;;;;1.00;1.00;;;;;22.74;46.49;100814.85;109971;1254;22846;-38
2023/10/16 06:59:16;;;;;;;;;1.00;1.00;;;;;22.77;46.74;100814.41;109899;1252;22953;-38
2023/10/16 07:01:43;;;;;;;;;2.00;2.00;;;;;22.81;45.93;100816.31;109957;1252;20006;-39
2023/10/16 07:04:13;;;;;;;;;4.00;2.00;;;;;22.76;46.08;100816.64;109937;1268;19786;-38
2023/10/16 07:06:42;;;;;;;;;2.00;2.00;;;;;22.73;46.21;100822.51;109951;1254;18563;-37
2023/10/16 07:09:08;;;;;;;;;1.00;1.00;;;;;22.61;46.32;100826.05;109921;1253;20116;-38
2023/10/16 07:11:34;;;;;;;;;4.00;2.00;;;;;22.58;46.02;100827.06;109947;1252;20986;-39
2023/10/16 07:14:00;;;;;;;;;4.00;3.00;;;;;22.52;44.59;100832.48;109942;1268;18536;-39
2023/10/16 07:16:26;;;;;;;;;2.00;2.00;;;;;22.50;43.44;100833.70;109963;1254;19954;-39
2023/10/16 07:18:57;;;;;;;;;2.00;2.00;;;;;22.45;43.38;100833.67;109982;1252;20620;-36
2023/10/16 07:21:25;;;;;;;;;1.00;1.00;;;;;22.42;43.21;100834.61;109958;1252;19600;-37
2023/10/16 07:23:53;;;;;;;;;2.00;2.00;;;;;22.37;42.69;100832.88;109986;1252;22174;-38
2023/10/16 07:26:19;;;;;;;;;4.00;4.00;;;;;22.32;42.42;100832.90;109957;1253;22390;-40
2023/10/16 07:28:48;;;;;;;;;2.00;2.00;;;;;22.33;42.85;100832.73;109949;1253;22115;-39
2023/10/16 07:31:15;;;;;;;;;4.00;2.00;;;;;22.32;43.13;100832.58;109964;1267;20137;-39
2023/10/16 07:33:41;;;;;;;;;2.00;2.00;;;;;22.31;43.32;100831.76;109946;1254;20881;-39
2023/10/16 07:36:11;;;;;;;;;4.00;4.00;;;;;22.28;43.44;100835.27;109969;1254;19701;-39
2023/10/16 07:38:38;;;;;;;;;5.00;5.00;;;;;22.33;43.09;100836.83;109940;1268;22146;-37
2023/10/16 07:41:04;;;;;;;;;5.00;4.00;;;;;22.28;42.23;100838.48;109961;1253;20925;-37
2023/10/16 07:43:32;;;;;;;;;4.00;2.00;;;;;22.26;41.81;100838.44;109943;1253;19419;-38
2023/10/16 07:46:15;;;;;;;;;4.00;4.00;;;;;22.25;41.96;100842.04;109949;1253;20985;-38
2023/10/16 07:48:42;;;;;;;;;4.50;4.50;;;;;22.22;41.76;100848.38;109935;1268;19321;-38
2023/10/16 07:51:08;;;;;;;;;4.50;4.50;;;;;22.15;41.23;100852.16;109973;1268;22525;-38
2023/10/16 07:53:34;;;;;;;;;4.00;4.00;;;;;22.18;41.01;100848.88;109952;1254;18731;-37
2023/10/16 07:56:02;;;;;;;;;4.00;4.00;;;;;22.20;40.60;100848.55;109955;1268;22533;-40
2023/10/16 07:58:33;;;;;;;;;4.50;4.00;;;;;22.13;40.48;100849.44;109920;1261;18446;-38
2023/10/16 08:01:17;;;;;;;;;4.00;4.00;;;;;22.15;40.72;100848.29;109921;1253;20102;-37
2023/10/16 08:03:45;;;;;;;;;5.00;5.00;;;;;22.20;40.64;100848.12;109973;1253;21937;-37
2023/10/16 08:06:12;;;;;;;;;4.00;4.00;;;;;22.20;40.39;100849.98;109965;1252;22646;-38
2023/10/16 08:08:38;;;;;;;;;6.00;5.00;;;;;22.22;40.46;100847.02;109997;1252;21363;-38
2023/10/16 08:11:12;;;;;;;;;4.00;4.00;;;;;22.25;40.84;100853.39;109894;1260;20946;-39
2023/10/16 08:13:46;;;;;;;;;4.00;4.00;;;;;22.26;40.58;100850.11;109876;1268;19827;-39
2023/10/16 08:16:12;;;;;;;;;4.00;4.00;;;;;22.20;40.64;100851.44;109902;1268;22899;-38
2023/10/16 08:18:40;;;;;;;;;5.00;5.00;;;;;22.22;40.52;100851.10;109901;1268;20423;-40
2023/10/16 08:21:07;;;;;;;;;5.00;4.00;;;;;22.31;40.38;100850.81;109951;1254;19696;-38
2023/10/16 08:23:37;;;;;;;;;5.00;5.00;;;;;22.31;39.91;100850.59;109936;1260;20663;-38
2023/10/16 08:26:14;;;;;;;;;4.50;4.00;;;;;22.35;39.63;100846.86;109977;1254;20880;-38
2023/10/16 08:28:44;;;;;;;;;2.00;2.00;;;;;22.39;39.57;100845.97;109946;1268;18578;-38
2023/10/16 08:31:23;;;;;;;;;2.00;2.00;;;;;22.47;38.86;100848.23;109917;1268;18769;-38
2023/10/16 08:33:49;;;;;;;;;6.00;6.00;;;;;22.41;39.14;100847.82;109961;1254;20631;-38
2023/10/16 08:36:18;;;;;;;;;4.00;4.00;;;;;22.41;38.99;100847.00;109927;1252;21003;-38
2023/10/16 08:38:51;;;;;;;;;8.00;8.00;;;;;22.33;37.81;100847.09;109912;1254;22561;-38
2023/10/16 08:41:18;;;;;;;;;2.00;2.00;;;;;22.25;37.15;100856.88;109963;1268;19622;-38
2023/10/16 08:43:54;;;;;;;;;5.00;4.00;;;;;22.18;36.88;100861.21;109979;1268;19523;-38
2023/10/16 08:46:30;;;;;;;;;5.00;4.00;;;;;22.12;36.42;100864.89;109970;1268;20067;-38
2023/10/16 08:48:57;;;;;;;;;6.00;5.00;;;;;22.06;36.16;100869.36;110001;1254;20711;-39
2023/10/16 08:51:23;;;;;;;;;5.00;4.50;;;;;22.00;35.83;100874.10;109949;1268;22219;-38
2023/10/16 08:53:49;;;;;;;;;2.00;2.00;;;;;21.94;35.72;100879.12;109959;1253;19843;-39
2023/10/16 08:56:17;;;;;;;;;5.00;5.00;;;;;21.85;35.55;100873.84;109914;1268;19086;-39
2023/10/16 08:58:44;;;;;;;;;2.00;2.00;;;;;21.80;35.67;100877.77;109926;1252;23775;-39
2023/10/16 09:01:11;;;;;;;;;3.00;3.00;;;;;21.80;35.28;100877.60;109949;1268;22151;-39
2023/10/16 09:03:37;;;;;;;;;4.00;4.00;;;;;21.80;35.21;100881.81;109940;1254;23120;-39
2023/10/16 09:06:04;;;;;;;;;6.00;5.00;;;;;21.79;35.24;100879.52;109976;1254;19817;-39
2023/10/16 09:08:32;;;;;;;;;3.00;3.00;;;;;21.70;35.08;100882.30;109957;1268;21113;-39
2023/10/16 09:10:58;;;;;;;;;2.00;2.00;;;;;21.71;34.88;100887.48;109954;1254;20872;-39
2023/10/16 09:13:26;;;;;;;;;4.00;3.00;;;;;21.65;34.88;100881.76;109814;1252;22932;-38
2023/10/16 09:15:52;;;;;;;;;4.00;4.00;;;;;21.67;34.89;100880.55;109921;1268;18729;-39
2023/10/16 09:18:21;;;;;;;;;2.00;2.00;;;;;21.68;34.65;100881.38;109920;1268;20238;-38
2023/10/16 09:20:49;;;;;;;;;4.00;2.00;;;;;21.70;35.15;100883.17;109956;1254;19673;-40
2023/10/16 09:23:22;;;;;;;;;5.00;4.00;;;;;21.74;34.82;100881.27;109962;1254;22686;-43
2023/10/16 09:25:52;;;;;;;;;2.00;2.00;;;;;21.69;35.03;100880.56;109955;1268;20617;-40
2023/10/16 09:28:19;;;;;;;;;2.00;2.00;;;;;21.73;34.85;100886.94;109967;1254;19784;-38
2023/10/16 09:30:45;;;;;;;;;4.00;4.00;;;;;21.72;34.87;100891.85;109955;1260;19970;-40
2023/10/16 09:33:12;;;;;;;;;4.00;4.00;;;;;21.73;34.52;100891.68;109916;1252;20591;-38
2023/10/16 09:35:43;;;;;;;;;7.00;5.00;;;;;21.71;34.43;100896.20;109962;1253;22312;-38
2023/10/16 09:38:11;;;;;;;;;4.00;4.00;;;;;21.70;34.14;100896.05;109994;1268;18808;-38
2023/10/16 09:40:37;;;;;;;;;5.00;5.00;;;;;21.61;34.20;100895.88;109948;1268;21999;-39
2023/10/16 09:43:06;;;;;;;;;4.00;2.00;;;;;21.57;34.54;100901.01;109900;1254;19517;-38
2023/10/16 09:45:32;;;;;;;;;2.00;2.00;;;;;21.58;34.30;100901.38;109935;1252;21392;-38
2023/10/16 09:47:58;;;;;;;;;7.00;7.00;;;;;21.62;34.25;100910.33;109919;1254;19065;-39
2023/10/16 09:50:24;;;;;;;;;9.00;8.00;;;;;21.67;34.81;100906.46;109937;1252;20143;-39
2023/10/16 09:52:50;;;;;;;;;7.50;6.00;;;;;21.65;34.68;100909.79;109949;1268;18603;-38
2023/10/16 09:55:18;;;;;;;;;;;;;;;21.64;34.91;100913.00;109917;1254;23190;-38
2023/10/16 09:57:46;;;;;;;;;8.00;8.00;;;;;21.64;34.88;100911.48;110000;1253;20786;-39
2023/10/16 10:00:28;;;;;;;;;7.00;7.00;;;;;21.63;34.88;100916.98;109942;1254;21122;-38
2023/10/16 10:02:54;;;;;;;;;7.00;6.00;;;;;21.61;34.74;100920.58;109218;1266;20992;-39
2023/10/16 10:05:22;;;;;;;;;6.00;6.00;;;;;21.55;34.56;100926.51;109812;1268;20864;-39
2023/10/16 10:07:49;;;;;;;;;4.00;4.00;;;;;21.51;34.58;100922.54;109924;1268;20836;-39
2023/10/16 10:13:02;;;;;;;;;7.00;4.50;;;;;21.52;34.41;100921.66;109949;1254;19690;-39
2023/10/16 10:15:30;;;;;;;;;5.00;5.00;;;;;21.51;34.05;100919.10;109993;1253;19963;-39
2023/10/16 10:18:02;;;;;;;;;7.00;7.00;;;;;21.46;34.25;100919.09;109937;1260;21027;-40
2023/10/16 10:20:32;;;;;;;;;4.50;4.50;;;;;21.46;34.11;100918.66;109944;1268;22884;-39
2023/10/16 10:22:58;;;;;;;;;4.00;4.00;;;;;21.48;34.01;100922.63;109935;1268;18708;-40
2023/10/16 10:25:24;;;;;;;;;5.00;4.00;;;;;21.50;33.80;100923.84;109921;1254;20785;-40
2023/10/16 10:27:50;;;;;;;;;4.00;4.00;;;;;21.48;33.83;100923.17;109947;1254;22267;-40
2023/10/16 10:30:17;;;;;;;;;4.00;4.00;;;;;21.45;33.75;100922.74;109944;1252;22334;-40
2023/10/16 10:32:43;;;;;;;;;5.00;5.00;;;;;21.47;33.91;100918.98;109962;1253;22540;-40
2023/10/16 10:35:10;;;;;;;;;6.50;4.50;;;;;21.45;34.01;100922.52;109923;1268;18199;-41
2023/10/16 10:37:36;;;;;;;;;4.00;4.00;;;;;21.45;33.92;100924.54;109444;1253;18997;-40
2023/10/16 10:40:05;;;;;;;;;5.00;5.00;;;;;21.49;33.75;100924.22;109922;1254;20494;-40
2023/10/16 10:42:33;;;;;;;;;5.00;5.00;;;;;21.47;33.83;100922.58;109963;1253;18527;-40
2023/10/16 10:45:21;;;;;;;;;5.00;5.00;;;;;21.40;33.72;100921.27;109971;1254;19987;-40
2023/10/16 10:47:47;;;;;;;;;4.67;4.67;;;;;21.39;33.52;100923.92;109967;1254;22271;-40
2023/10/16 10:50:14;;;;;;;;;7.00;5.00;;;;;21.37;33.55;100923.87;109945;1269;20088;-39
2023/10/16 10:52:40;;;;;;;;;5.00;5.00;;;;;21.36;33.63;100929.81;109966;1253;20130;-40
2023/10/16 10:55:14;;;;;;;;;5.00;5.00;;;;;21.42;33.78;100928.45;109891;1254;21653;-40
2023/10/16 10:57:40;;;;;;;;;8.00;7.00;;;;;21.41;33.89;100927.64;109980;1254;22379;-40
2023/10/16 11:02:52;;;;;;;;;5.00;5.00;;;;;21.39;34.06;100927.36;109934;1253;19246;-40
2023/10/16 11:05:25;;;;;;;;;4.00;4.00;;;;;21.40;34.06;100929.82;109930;1254;22779;-40
2023/10/16 11:10:32;;;;;;;;;5.00;5.00;;;;;21.55;35.05;100928.53;109918;1254;21129;-40
2023/10/16 11:12:58;;;;;;;;;4.00;4.00;;;;;21.64;35.20;100929.24;109937;1254;19729;-41
2023/10/16 11:15:26;;;;;;;;;4.00;4.00;;;;;21.68;35.41;100933.07;109921;1254;22178;-40
2023/10/16 11:17:52;;;;;;;;;4.00;4.00;;;;;21.66;35.76;100930.94;109906;1254;20783;-40
2023/10/16 11:20:27;;;;;;;;;7.00;5.00;;;;;21.69;36.21;100936.34;109888;1254;21287;-41
2023/10/16 11:22:53;;;;;;;;;4.00;4.00;;;;;21.69;36.79;100935.57;109926;1254;20235;-39
2023/10/16 11:25:20;;;;;;;;;4.00;4.00;;;;;21.71;37.22;100935.63;109900;1260;20729;-39
2023/10/16 11:27:47;;;;;;;;;4.00;4.00;;;;;21.76;37.39;100939.73;109946;1268;20978;-40
2023/10/16 11:30:18;;;;;;;;;2.00;2.00;;;;;21.75;37.62;100940.70;109918;1268;19888;-39
2023/10/16 11:32:45;;;;;;;;;4.00;4.00;;;;;21.79;37.74;100939.99;109955;1268;19359;-39
2023/10/16 11:35:14;;;;;;;;;4.00;4.00;;;;;21.84;37.96;100945.40;109923;1253;21533;-39
2023/10/16 11:37:43;;;;;;;;;4.50;4.00;;;;;21.82;38.00;100947.91;109951;1268;18789;-41
2023/10/16 11:40:18;;;;;;;;;5.00;5.00;;;;;21.79;38.27;100946.98;109899;1253;21975;-39
2023/10/16 11:42:44;;;;;;;;;4.00;3.00;;;;;21.83;38.50;100942.78;109933;1267;22941;-39
2023/10/16 11:45:18;;;;;;;;;6.00;4.00;;;;;21.82;38.49;100944.79;109902;1254;19819;-39
2023/10/16 11:47:44;;;;;;;;;4.00;4.00;;;;;21.83;38.41;100942.02;109933;1254;22165;-39
2023/10/16 11:50:17;;;;;;;;;5.00;4.00;;;;;21.81;38.67;100944.03;109902;1268;19422;-38
2023/10/16 11:52:43;;;;;;;;;4.00;2.00;;;;;21.83;38.62;100941.36;109926;1260;21443;-38
2023/10/16 11:55:09;;;;;;;;;4.00;4.00;;;;;21.84;38.72;100941.96;109930;1253;22075;-40
2023/10/16 11:57:35;;;;;;;;;2.00;2.00;;;;;21.84;38.85;100936.07;109868;1253;19376;-39
2023/10/16 12:00:01;;;;;;;;;4.00;4.00;;;;;21.86;38.61;100942.61;109838;1268;21213;-39
2023/10/16 12:02:29;;;;;;;;;4.00;4.00;;;;;21.86;38.74;100936.95;109917;1253;21049;-39
2023/10/16 12:04:57;;;;;;;;;4.00;4.00;;;;;21.86;39.16;100941.86;109911;1254;19640;-39
2023/10/16 12:07:23;;;;;;;;;2.00;2.00;;;;;21.85;39.11;100937.71;109934;1254;22893;-38
2023/10/16 12:09:51;;;;;;;;;4.00;4.00;;;;;21.87;39.06;100933.30;109881;1253;21690;-39
2023/10/16 12:12:19;;;;;;;;;4.00;4.00;;;;;21.87;39.17;100935.75;109922;1254;22740;-38
2023/10/16 12:14:47;;;;;;;;;2.00;2.00;;;;;21.88;39.14;100934.33;109951;1268;19794;-38
2023/10/16 12:17:13;;;;;;;;;4.00;4.00;;;;;21.89;39.27;100937.00;109974;1254;20876;-38
2023/10/16 12:19:39;;;;;;;;;2.00;2.00;;;;;21.88;39.34;100934.11;109942;1254;19387;-38
2023/10/16 12:22:08;;;;;;;;;2.00;2.00;;;;;21.88;39.48;100933.66;109900;1254;20414;-38
2023/10/16 12:24:34;;;;;;;;;3.00;2.00;;;;;21.90;39.52;100933.13;109811;1253;136503;-38
2023/10/16 12:27:01;;;;;;;;;2.00;2.00;;;;;21.91;39.30;100933.67;109920;1253;22450;-40
2023/10/16 12:29:27;;;;;;;;;4.00;4.00;;;;;21.92;39.33;100943.44;109961;1268;20001;-38
2023/10/16 12:31:54;;;;;;;;;2.00;2.00;;;;;21.93;39.35;100938.52;109937;1254;20557;-38
2023/10/16 12:34:22;;;;;;;;;2.00;2.00;;;;;21.91;39.24;100940.92;109982;1268;19154;-41
2023/10/16 12:36:49;;;;;;;;;2.00;2.00;;;;;21.96;39.65;100935.04;109941;1252;23269;-39
2023/10/16 12:39:16;;;;;;;;;2.00;2.00;;;;;21.96;39.65;100940.87;109910;1268;20672;-39
2023/10/16 12:41:42;;;;;;;;;2.00;2.00;;;;;21.93;39.90;100945.89;109964;1267;18302;-39
2023/10/16 12:44:09;;;;;;;;;2.00;2.00;;;;;21.95;39.37;100943.65;109851;1253;19827;-40
2023/10/16 12:46:35;;;;;;;;;2.00;2.00;;;;;21.96;39.71;100945.89;109939;1254;22223;-40